aviador You're here:

KS39 Decoded Metar

in
Report Time2018-04-24 18:20:00
UTC Time2018-04-24 18:31:03
Flight Rules vfr VFR
Wind080° at 05 kt
W.Rank080° ranks 31
Current wind is above 080° avg. (4.5)
Visibility9999 m
Phenomena:N/A
Clouds:N/A
Expected CloudBase > 7,200 ft AGL from Temp-Dew spread
CeilingNone
Temp16°C
Dew Point-2°C (29% RH)
AAT11.9°C
QNH1024 hPa
Raw Report
KS39 241820Z AUTO 08005KT 10SM CLR 16/M02 A3025 RMK AO2=

Extra information for KS39:More info

Social comments